Time;durP1;ratioP1;P1;durP2;ratioP2;P2;SDS_P1;SDS_P2;PMS_P1;PMS_P2;Temp;Humidity;BMP_temperature;BMP_pressure;BME280_temperature;BME280_humidity;BME280_pressure;Samples;Min_cycle;Max_cycle;Signal;HPM_P1;HPM_P2
2021/11/28 00:01:53;;;;;;;1.65;1.17;;;;;;;1.16;100.00;99101.63;6203535;23;20606;-57
2021/11/28 00:04:57;;;;;;;1.05;1.05;;;;;;;1.17;100.00;99094.91;6206673;23;20725;-58
2021/11/28 00:14:55;;;;;;;0.98;0.98;;;;;;;1.00;100.00;99074.22;6063463;23;20158;-60
2021/11/28 00:17:59;;;;;;;1.38;1.38;;;;;;;1.03;100.00;99084.31;6208733;23;20108;-58
2021/11/28 00:21:03;;;;;;;0.82;0.82;;;;;;;1.02;100.00;99092.97;6209288;23;20023;-57
2021/11/28 00:24:06;;;;;;;3.45;1.35;;;;;;;1.06;100.00;99088.19;6207787;23;20066;-57
2021/11/28 00:27:10;;;;;;;1.08;1.08;;;;;;;0.98;100.00;99082.09;6207764;23;20095;-58
2021/11/28 00:30:17;;;;;;;0.90;0.90;;;;;;;0.92;100.00;99072.84;6208500;23;20063;-58
2021/11/28 00:33:21;;;;;;;1.60;1.60;;;;;;;0.91;100.00;99076.78;6205704;23;20015;-58
2021/11/28 00:36:24;;;;;;;2.22;1.65;;;;;;;0.96;100.00;99084.50;6206882;23;20483;-57
2021/11/28 00:39:27;;;;;;;0.98;0.98;;;;;;;0.92;100.00;99091.25;6206388;23;20024;-57
2021/11/28 00:42:31;;;;;;;1.98;1.88;;;;;;;0.90;100.00;99091.69;6206205;23;20499;-58
2021/11/28 00:45:34;;;;;;;0.88;0.88;;;;;;;0.85;100.00;99083.97;6202217;23;20607;-57
2021/11/28 00:48:39;;;;;;;0.98;0.98;;;;;;;0.86;100.00;99085.53;6201289;23;20023;-57
2021/11/28 00:51:52;;;;;;;2.25;2.15;;;;;;;0.90;100.00;99086.22;6201283;23;20107;-58
2021/11/28 00:54:55;;;;;;;1.63;1.58;;;;;;;0.82;100.00;99087.59;6201610;23;20395;-57
2021/11/28 00:57:58;;;;;;;1.20;1.20;;;;;;;0.81;100.00;99086.03;6201647;23;20023;-57
2021/11/28 01:01:01;;;;;;;0.70;0.70;;;;;;;0.78;100.00;99079.44;6201369;23;20100;-57
2021/11/28 01:04:05;;;;;;;3.55;1.73;;;;;;;0.85;100.00;99083.97;6204078;23;20011;-58
2021/11/28 01:07:09;;;;;;;0.90;0.90;;;;;;;0.88;100.00;99090.59;6202714;23;20023;-57
2021/11/28 01:10:12;;;;;;;0.77;0.77;;;;;;;0.86;100.00;99088.28;6181893;23;20016;-57
2021/11/28 01:13:17;;;;;;;7.80;1.20;;;;;;;0.87;100.00;99086.31;6201754;23;20137;-58
2021/11/28 01:16:21;;;;;;;0.75;0.75;;;;;;;0.83;100.00;99089.13;6202703;23;20027;-57
2021/11/28 01:19:25;;;;;;;0.90;0.90;;;;;;;0.85;100.00;99083.19;6203606;23;20031;-58
2021/11/28 01:22:28;;;;;;;0.90;0.90;;;;;;;0.85;100.00;99089.47;6202749;23;20114;-58
2021/11/28 01:25:31;;;;;;;0.95;0.95;;;;;;;0.81;100.00;99088.00;6203650;23;20353;-57
2021/11/28 01:28:35;;;;;;;1.25;1.25;;;;;;;0.85;100.00;99083.97;6203500;23;20130;-50
2021/11/28 01:31:38;;;;;;;2.70;1.30;;;;;;;0.84;100.00;99082.47;6202753;23;20073;-50
2021/11/28 01:34:41;;;;;;;1.20;1.20;;;;;;;0.92;100.00;99092.03;6202834;23;20062;-50
2021/11/28 01:37:45;;;;;;;1.05;1.05;;;;;;;0.99;100.00;99089.13;6203536;23;20372;-51
2021/11/28 01:40:51;;;;;;;6.70;1.10;;;;;;;1.00;100.00;99087.91;6202203;23;20030;-50
2021/11/28 01:43:57;;;;;;;1.15;1.15;;;;;;;0.97;100.00;99088.00;6202667;23;20022;-50
2021/11/28 01:47:00;;;;;;;1.48;1.38;;;;;;;0.99;100.00;99086.38;6204773;23;20055;-59
2021/11/28 01:50:05;;;;;;;2.17;1.33;;;;;;;0.99;100.00;99082.88;6204466;23;20487;-59
2021/11/28 01:53:12;;;;;;;4.65;1.60;;;;;;;0.98;100.00;99078.56;6204853;23;20403;-60
2021/11/28 01:56:15;;;;;;;0.70;0.70;;;;;;;1.00;100.00;99084.41;6203354;23;20282;-57
2021/11/28 01:59:20;;;;;;;0.60;0.60;;;;;;;1.01;100.00;99086.72;6203493;23;20113;-58
2021/11/28 02:02:23;;;;;;;1.10;1.10;;;;;;;0.91;100.00;99076.03;6205759;23;20431;-58
2021/11/28 02:05:29;;;;;;;0.77;0.77;;;;;;;0.83;100.00;99075.41;6205591;23;20062;-57
2021/11/28 02:08:32;;;;;;;0.98;0.98;;;;;;;0.75;100.00;99074.06;6187319;23;20019;-51
2021/11/28 02:11:36;;;;;;;2.05;1.95;;;;;;;0.71;100.00;99078.84;6204035;23;20096;-51
2021/11/28 02:14:40;;;;;;;1.88;1.77;;;;;;;0.82;100.00;99079.38;6202377;23;20022;-50
2021/11/28 02:17:44;;;;;;;1.33;1.33;;;;;;;0.76;100.00;99078.31;6184722;23;20117;-57
2021/11/28 02:20:49;;;;;;;3.53;1.48;;;;;;;0.75;100.00;99074.06;6203812;23;20383;-57
2021/11/28 02:23:52;;;;;;;0.73;0.73;;;;;;;0.73;100.00;99076.47;6207291;23;20027;-58
2021/11/28 02:26:56;;;;;;;0.80;0.80;;;;;;;0.70;100.00;99077.31;6205855;23;20062;-58
2021/11/28 02:29:59;;;;;;;0.80;0.80;;;;;;;0.72;100.00;99077.66;6205533;23;20146;-58
2021/11/28 02:33:04;;;;;;;1.45;1.45;;;;;;;0.68;100.00;99079.72;6206618;23;20039;-58
2021/11/28 02:36:09;;;;;;;0.80;0.80;;;;;;;0.70;100.00;99075.34;6204900;23;20200;-58
2021/11/28 02:39:14;;;;;;;5.25;1.65;;;;;;;0.71;100.00;99076.13;6209276;23;20051;-57
2021/11/28 02:42:19;;;;;;;0.70;0.70;;;;;;;0.67;100.00;99072.69;6191536;23;20074;-57
2021/11/28 02:45:25;;;;;;;0.70;0.70;;;;;;;0.61;100.00;99071.66;6211763;23;20316;-57
2021/11/28 02:48:30;;;;;;;0.90;0.90;;;;;;;0.60;100.00;99083.81;6214131;23;20066;-58
2021/11/28 02:51:35;;;;;;;0.90;0.90;;;;;;;0.57;100.00;99090.13;6212757;23;20015;-56
2021/11/28 02:54:44;;;;;;;0.85;0.85;;;;;;;0.47;100.00;99088.44;6210720;23;20069;-57
2021/11/28 02:57:47;;;;;;;1.00;1.00;;;;;;;0.35;100.00;99083.59;6208983;23;20087;-58
2021/11/28 03:00:55;;;;;;;0.77;0.77;;;;;;;0.26;100.00;99080.69;6207509;23;20031;-58
2021/11/28 03:03:58;;;;;;;0.95;0.95;;;;;;;0.18;100.00;99071.84;6210337;23;20019;-58
2021/11/28 03:07:01;;;;;;;0.90;0.90;;;;;;;0.11;100.00;99065.78;6210585;23;20023;-58
2021/11/28 03:10:07;;;;;;;1.10;1.10;;;;;;;0.03;100.00;99062.41;6209333;23;20006;-57
2021/11/28 03:13:32;;;;;;;0.90;0.90;;;;;;;-0.05;100.00;99061.03;6190658;23;20083;-57
2021/11/28 03:16:35;;;;;;;1.15;1.15;;;;;;;-0.14;100.00;99064.34;6208884;23;20014;-57
2021/11/28 03:19:40;;;;;;;0.98;0.98;;;;;;;-0.18;100.00;99069.13;6206610;23;20818;-58
2021/11/28 03:22:46;;;;;;;0.60;0.60;;;;;;;-0.22;100.00;99073.13;6208002;23;20047;-57
2021/11/28 03:25:50;;;;;;;1.00;1.00;;;;;;;-0.28;100.00;99063.88;6208124;23;20061;-57
2021/11/28 03:29:04;;;;;;;1.23;1.23;;;;;;;-0.28;100.00;99072.81;6206489;23;20014;-57
2021/11/28 03:32:08;;;;;;;0.98;0.98;;;;;;;-0.33;100.00;99076.06;6206305;23;20070;-57
2021/11/28 03:35:11;;;;;;;0.90;0.90;;;;;;;-0.36;100.00;99063.22;6207157;23;20015;-51
2021/11/28 03:38:15;;;;;;;1.13;1.13;;;;;;;-0.42;100.00;99059.44;6207432;23;20370;-50
2021/11/28 03:41:21;;;;;;;0.80;0.80;;;;;;;-0.41;100.00;99065.69;6207034;23;20533;-51
2021/11/28 03:44:26;;;;;;;0.80;0.80;;;;;;;-0.41;100.00;99057.50;6205326;23;20019;-57
2021/11/28 03:47:30;;;;;;;1.42;1.42;;;;;;;-0.37;100.00;99056.19;6203986;23;20018;-57
2021/11/28 03:50:33;;;;;;;0.80;0.80;;;;;;;-0.32;100.00;99047.50;6203171;23;20077;-57
2021/11/28 03:53:36;;;;;;;1.15;1.15;;;;;;;-0.28;100.00;99045.47;6202482;23;20027;-57
2021/11/28 03:56:41;;;;;;;1.65;1.55;;;;;;;-0.30;100.00;99045.13;6183040;23;20018;-57
2021/11/28 03:59:44;;;;;;;1.23;1.23;;;;;;;-0.24;100.00;99043.44;6201204;23;20310;-57
2021/11/28 04:02:48;;;;;;;0.77;0.77;;;;;;;-0.30;100.00;99042.38;6201160;23;20031;-57
2021/11/28 04:05:53;;;;;;;1.10;1.10;;;;;;;-0.38;100.00;99043.72;6200520;23;20663;-57
2021/11/28 04:08:56;;;;;;;0.70;0.70;;;;;;;-0.43;100.00;99046.94;6201060;23;20014;-57
2021/11/28 04:12:00;;;;;;;9.02;2.05;;;;;;;-0.50;100.00;99047.13;6198976;23;20089;-57
2021/11/28 04:15:04;;;;;;;1.00;1.00;;;;;;;-0.47;100.00;99043.53;6200213;23;20361;-57
2021/11/28 04:18:07;;;;;;;11.80;1.75;;;;;;;-0.53;100.00;99047.94;6181202;23;20349;-57
2021/11/28 04:21:10;;;;;;;0.75;0.75;;;;;;;-0.59;100.00;99038.69;6200981;23;20022;-57
2021/11/28 04:24:13;;;;;;;0.88;0.88;;;;;;;-0.64;100.00;99041.91;6201593;23;20180;-57
2021/11/28 04:27:17;;;;;;;1.00;1.00;;;;;;;-0.72;100.00;99043.25;6202561;23;20081;-56
2021/11/28 04:30:20;;;;;;;2.60;1.92;;;;;;;-0.75;100.00;99041.34;6183560;23;20077;-57
2021/11/28 04:33:23;;;;;;;1.45;1.45;;;;;;;-0.80;100.00;99045.31;6201390;23;20066;-57
2021/11/28 04:36:26;;;;;;;0.60;0.60;;;;;;;-0.87;100.00;99039.25;6201314;23;20544;-57
2021/11/28 04:39:29;;;;;;;1.10;1.10;;;;;;;-0.91;100.00;99039.28;6202541;23;20332;-56
2021/11/28 04:42:32;;;;;;;1.15;1.15;;;;;;;-0.94;100.00;99040.13;6201044;23;20463;-57
2021/11/28 04:45:35;;;;;;;0.35;0.35;;;;;;;-1.03;100.00;99036.41;6201644;23;20672;-57
2021/11/28 04:48:38;;;;;;;1.00;1.00;;;;;;;-0.99;100.00;99032.41;6200557;23;20027;-56
2021/11/28 04:51:42;;;;;;;0.60;0.60;;;;;;;-0.96;100.00;99041.75;6201283;23;20357;-51
2021/11/28 04:54:45;;;;;;;1.42;1.42;;;;;;;-0.99;100.00;99045.28;6201464;23;20397;-51
2021/11/28 04:57:47;;;;;;;1.10;1.10;;;;;;;-0.99;100.00;99048.03;6202778;23;20446;-50
2021/11/28 05:00:50;;;;;;;0.57;0.57;;;;;;;-1.01;100.00;99044.94;6202362;23;20023;-51
2021/11/28 05:03:53;;;;;;;1.13;1.13;;;;;;;-0.98;100.00;99055.06;6201534;23;20608;-50
2021/11/28 05:06:56;;;;;;;0.98;0.98;;;;;;;-0.97;100.00;99035.50;6202108;23;20020;-51
2021/11/28 05:09:59;;;;;;;0.75;0.75;;;;;;;-1.01;100.00;99037.53;6202892;23;20267;-50
2021/11/28 05:13:02;;;;;;;0.80;0.80;;;;;;;-1.03;100.00;99041.84;6202090;23;20353;-50
2021/11/28 05:16:05;;;;;;;1.10;1.10;;;;;;;-1.03;100.00;99037.19;6201770;23;20306;-50
2021/11/28 05:19:08;;;;;;;0.50;0.50;;;;;;;-1.01;100.00;99039.47;6205096;23;20030;-50
2021/11/28 05:22:11;;;;;;;1.63;1.63;;;;;;;-0.97;100.00;99045.66;6206454;23;20018;-50
2021/11/28 05:25:14;;;;;;;0.85;0.85;;;;;;;-0.96;100.00;99047.22;6205305;23;20073;-51
2021/11/28 05:28:17;;;;;;;0.90;0.90;;;;;;;-0.96;100.00;99050.72;6203015;23;20022;-50
2021/11/28 05:31:20;;;;;;;0.80;0.80;;;;;;;-0.91;100.00;99047.47;6184009;23;20027;-51
2021/11/28 05:34:23;;;;;;;0.98;0.98;;;;;;;-0.85;100.00;99047.78;6203971;23;21116;-51
2021/11/28 05:37:27;;;;;;;1.10;1.10;;;;;;;-0.80;100.00;99047.28;6202533;23;20134;-51
2021/11/28 05:40:30;;;;;;;1.10;1.10;;;;;;;-0.81;100.00;99046.53;6202190;23;20050;-51
2021/11/28 05:43:36;;;;;;;1.00;1.00;;;;;;;-0.81;100.00;99059.41;6202297;23;20475;-50
2021/11/28 05:46:39;;;;;;;2.22;2.13;;;;;;;-0.80;100.00;99060.94;6202792;23;20116;-50
2021/11/28 05:49:42;;;;;;;0.90;0.90;;;;;;;-0.80;100.00;99061.72;6202464;23;20096;-50
2021/11/28 05:52:45;;;;;;;0.50;0.50;;;;;;;-0.85;100.00;99058.72;6201538;23;20271;-50
2021/11/28 05:55:50;;;;;;;1.17;1.17;;;;;;;-0.86;100.00;99063.41;6204502;23;20019;-50
2021/11/28 05:58:53;;;;;;;1.10;1.10;;;;;;;-0.86;100.00;99062.63;6205515;23;20335;-50
2021/11/28 06:01:57;;;;;;;0.80;0.80;;;;;;;-0.87;100.00;99056.38;6205232;23;20511;-51
2021/11/28 06:05:00;;;;;;;1.00;1.00;;;;;;;-0.88;100.00;99051.34;6203798;23;20078;-51
2021/11/28 06:08:03;;;;;;;1.08;1.08;;;;;;;-0.91;100.00;99052.94;6203833;23;20113;-51
2021/11/28 06:11:07;;;;;;;0.77;0.77;;;;;;;-0.95;100.00;99059.66;6205972;23;20705;-50
2021/11/28 06:14:10;;;;;;;3.92;1.35;;;;;;;-0.99;100.00;99053.50;6206147;23;20102;-50
2021/11/28 06:17:13;;;;;;;1.13;1.13;;;;;;;-1.03;100.00;99047.31;6205129;23;20019;-51
2021/11/28 06:20:16;;;;;;;1.10;1.10;;;;;;;-1.03;100.00;99055.53;6203335;23;20050;-51
2021/11/28 06:23:19;;;;;;;1.30;1.30;;;;;;;-1.08;100.00;99047.78;6202633;23;20118;-50
2021/11/28 06:26:22;;;;;;;1.00;1.00;;;;;;;-1.08;100.00;99056.00;6203349;23;20069;-50
2021/11/28 06:29:25;;;;;;;1.85;1.75;;;;;;;-1.08;100.00;99066.91;6205884;23;20035;-50
2021/11/28 06:32:28;;;;;;;1.55;1.55;;;;;;;-1.07;100.00;99068.47;6184928;23;20074;-50
2021/11/28 06:35:31;;;;;;;0.98;0.98;;;;;;;-1.11;100.00;99062.31;6204141;23;20467;-50
2021/11/28 06:38:34;;;;;;;1.20;1.20;;;;;;;-1.11;100.00;99056.84;6203627;23;20482;-50
2021/11/28 06:41:38;;;;;;;1.30;1.30;;;;;;;-1.11;100.00;99054.88;6204249;23;20857;-51
2021/11/28 06:44:41;;;;;;;0.88;0.88;;;;;;;-1.12;100.00;99052.56;6204039;23;20018;-50
2021/11/28 06:47:44;;;;;;;0.90;0.90;;;;;;;-1.14;100.00;99057.66;6204117;23;20245;-51
2021/11/28 06:50:49;;;;;;;1.38;1.33;;;;;;;-1.19;100.00;99049.97;6203178;23;20081;-50
2021/11/28 06:53:52;;;;;;;3.60;2.78;;;;;;;-1.22;100.00;99039.84;6203237;23;20234;-50
2021/11/28 06:56:56;;;;;;;0.90;0.90;;;;;;;-1.22;100.00;99050.78;6202875;23;20031;-50
2021/11/28 06:59:59;;;;;;;1.20;1.20;;;;;;;-1.25;100.00;99051.59;6201650;23;20102;-50
2021/11/28 07:03:02;;;;;;;0.90;0.90;;;;;;;-1.33;100.00;99053.69;6201737;23;20019;-50
2021/11/28 07:06:05;;;;;;;4.00;1.98;;;;;;;-1.38;100.00;99053.38;6201998;23;20471;-50
2021/11/28 07:09:08;;;;;;;0.95;0.95;;;;;;;-1.42;100.00;99063.59;6203163;23;20019;-50
2021/11/28 07:12:11;;;;;;;1.48;1.48;;;;;;;-1.46;100.00;99051.97;6201415;23;20023;-50
2021/11/28 07:15:14;;;;;;;0.90;0.90;;;;;;;-1.49;100.00;99045.38;6184476;23;20315;-51
2021/11/28 07:18:17;;;;;;;1.63;1.52;;;;;;;-1.50;100.00;99046.56;6202472;23;20081;-50
2021/11/28 07:21:21;;;;;;;1.00;1.00;;;;;;;-1.52;100.00;99045.44;6202746;23;20094;-51
2021/11/28 07:24:23;;;;;;;1.25;1.25;;;;;;;-1.54;100.00;99046.59;6202108;23;20018;-50
2021/11/28 07:27:27;;;;;;;0.80;0.80;;;;;;;-1.54;100.00;99046.59;6201537;23;20074;-50
2021/11/28 07:30:31;;;;;;;1.42;1.42;;;;;;;-1.62;100.00;99045.19;6201557;23;20676;-50
2021/11/28 07:33:37;;;;;;;1.25;1.25;;;;;;;-1.63;100.00;99038.19;6201823;23;20050;-50
2021/11/28 07:36:41;;;;;;;1.30;1.30;;;;;;;-1.60;100.00;99039.28;6202435;23;20093;-51
2021/11/28 07:39:44;;;;;;;1.95;1.85;;;;;;;-1.67;100.00;99042.16;6202876;23;20059;-50
2021/11/28 07:42:48;;;;;;;1.80;1.70;;;;;;;-1.74;100.00;99043.03;6203364;23;20015;-52
2021/11/28 07:45:51;;;;;;;1.30;1.30;;;;;;;-1.89;100.00;99058.06;6202586;23;20050;-50
2021/11/28 07:48:54;;;;;;;1.10;1.10;;;;;;;-1.97;100.00;99053.88;6202999;23;20174;-50
2021/11/28 07:51:57;;;;;;;2.30;1.92;;;;;;;-2.00;100.00;99067.56;6204195;23;20195;-50
2021/11/28 07:55:00;;;;;;;1.17;1.17;;;;;;;-2.02;100.00;99057.09;6203844;23;20066;-50
2021/11/28 07:58:03;;;;;;;1.95;1.85;;;;;;;-2.03;100.00;99052.78;6204470;23;20064;-50
2021/11/28 08:01:06;;;;;;;1.15;1.15;;;;;;;-1.98;100.00;99060.53;6215172;23;20078;-50
2021/11/28 08:04:09;;;;;;;1.80;1.70;;;;;;;-1.97;100.00;99056.59;6245428;23;20357;-50
2021/11/28 08:07:12;;;;;;;0.98;0.98;;;;;;;-1.96;100.00;99063.63;6225176;23;20027;-53
2021/11/28 08:10:15;;;;;;;1.05;1.05;;;;;;;-1.88;100.00;99075.97;6211785;23;20096;-50
2021/11/28 08:13:19;;;;;;;1.33;1.23;;;;;;;-1.91;100.00;99076.03;6208992;23;20020;-50
2021/11/28 08:16:22;;;;;;;5.65;2.03;;;;;;;-1.86;100.00;99073.59;6204899;23;20019;-50
2021/11/28 08:19:25;;;;;;;1.38;1.38;;;;;;;-1.87;100.00;99072.06;6203794;23;20078;-50
2021/11/28 08:22:28;;;;;;;1.35;1.35;;;;;;;-1.79;100.00;99062.59;6185815;23;20023;-50
2021/11/28 08:25:32;;;;;;;2.28;1.52;;;;;;;-1.67;100.00;99070.19;6203555;23;20340;-50
2021/11/28 08:28:35;;;;;;;2.67;2.58;;;;;;;-1.51;100.00;99061.38;6205249;23;20426;-50
2021/11/28 08:31:46;;;;;;;1.33;1.30;;;;;;;-1.39;100.00;99069.00;6212403;23;20073;-50
2021/11/28 08:34:54;;;;;;;1.58;1.50;;;;;;;-1.28;100.00;99068.84;6218092;23;20022;-50
2021/11/28 08:37:58;;;;;;;3.17;2.90;;;;;;;-1.15;100.00;99058.88;6189027;23;20023;-50
2021/11/28 08:41:01;;;;;;;6.18;2.67;;;;;;;-1.01;100.00;99055.88;6207430;23;20111;-57
2021/11/28 08:44:04;;;;;;;1.00;1.00;;;;;;;-0.95;100.00;99056.94;6205978;23;20134;-58
2021/11/28 08:47:08;;;;;;;2.33;1.10;;;;;;;-0.83;100.00;99067.28;6208132;23;20019;-58
2021/11/28 08:50:14;;;;;;;4.63;3.10;;;;;;;-0.79;100.00;99068.75;6207530;23;20027;-57
2021/11/28 08:53:17;;;;;;;4.88;1.80;;;;;;;-0.63;100.00;99062.59;6209596;23;20253;-59
2021/11/28 08:56:21;;;;;;;3.15;1.92;;;;;;;-0.55;100.00;99064.00;6207281;23;20452;-56
2021/11/28 08:59:26;;;;;;;11.60;2.40;;;;;;;-0.41;100.00;99055.50;6207753;23;20074;-57
2021/11/28 09:02:28;;;;;;;6.88;2.42;;;;;;;-0.32;100.00;99050.25;6201604;23;20449;-58
2021/11/28 09:05:32;;;;;;;1.42;1.42;;;;;;;-0.22;100.00;99051.22;6204979;23;20472;-57
2021/11/28 09:08:37;;;;;;;2.00;1.90;;;;;;;-0.11;100.00;99052.53;6204240;23;20352;-57
2021/11/28 09:11:39;;;;;;;9.73;1.33;;;;;;;0.06;100.00;99049.84;6204024;23;20563;-56
2021/11/28 09:14:42;;;;;;;4.68;2.42;;;;;;;0.20;100.00;99050.31;6205788;23;20023;-57
2021/11/28 09:18:00;;;;;;;1.98;1.92;;;;;;;0.24;100.00;99045.50;6205433;23;20460;-58
2021/11/28 09:21:03;;;;;;;1.80;1.55;;;;;;;0.30;100.00;99043.06;6203647;23;20814;-57
2021/11/28 09:27:29;;;;;;;4.50;1.85;;;;;;;0.29;100.00;99046.97;6189409;23;20014;-55
2021/11/28 09:30:34;;;;;;;16.67;2.58;;;;;;;0.52;100.00;99044.09;6185470;23;20321;-57
2021/11/28 09:33:39;;;;;;;3.10;1.50;;;;;;;0.69;100.00;99049.13;6203776;23;20259;-58
2021/11/28 09:36:42;;;;;;;1.25;1.25;;;;;;;0.90;100.00;99052.56;6204471;23;20389;-51
2021/11/28 09:39:45;;;;;;;2.05;1.88;;;;;;;1.00;100.00;99056.97;6203714;23;20093;-51
2021/11/28 09:42:58;;;;;;;3.30;2.13;;;;;;;1.11;100.00;99052.00;6203674;23;20348;-51
2021/11/28 09:46:05;;;;;;;2.92;2.72;;;;;;;1.22;100.00;99047.78;6203629;23;20107;-51
2021/11/28 09:49:08;;;;;;;5.95;3.45;;;;;;;1.28;100.00;99051.53;6203539;23;20027;-57
2021/11/28 09:52:19;;;;;;;7.68;3.20;;;;;;;1.38;100.00;99052.47;6203825;23;20630;-57
2021/11/28 09:55:25;;;;;;;1.45;1.45;;;;;;;1.28;100.00;99045.28;6203701;23;20035;-51
2021/11/28 09:58:29;;;;;;;1.83;1.73;;;;;;;1.37;100.00;99046.19;6204199;23;20426;-51
2021/11/28 10:01:34;;;;;;;2.35;2.05;;;;;;;1.41;100.00;99051.59;6204375;23;20662;-57
2021/11/28 10:04:37;;;;;;;8.90;2.70;;;;;;;1.56;100.00;99035.53;6204883;23;20172;-57
2021/11/28 10:07:45;;;;;;;2.10;1.95;;;;;;;1.62;100.00;99042.00;6204984;23;20020;-58
2021/11/28 10:11:03;;;;;;;11.13;3.80;;;;;;;1.69;100.00;99031.59;6205383;23;20077;-54
2021/11/28 10:14:14;;;;;;;4.43;2.70;;;;;;;1.80;100.00;99025.81;6204345;23;20763;-51
2021/11/28 10:17:19;;;;;;;1.58;1.52;;;;;;;1.85;100.00;99028.00;6205482;23;20125;-51
2021/11/28 10:20:26;;;;;;;13.38;2.70;;;;;;;1.86;100.00;99024.06;6206359;23;20027;-52
2021/11/28 10:23:29;;;;;;;3.60;2.58;;;;;;;1.91;100.00;99020.75;6208373;23;20019;-51
2021/11/28 10:26:38;;;;;;;15.90;2.63;;;;;;;2.01;100.00;99016.94;6207010;23;20298;-51
2021/11/28 10:29:42;;;;;;;16.48;3.83;;;;;;;2.29;100.00;99018.81;6205587;23;20015;-51
2021/11/28 10:32:49;;;;;;;3.92;2.10;;;;;;;2.46;100.00;99016.72;6204765;23;20344;-51
2021/11/28 10:36:10;;;;;;;5.97;2.70;;;;;;;2.50;100.00;99015.38;6205269;23;20058;-51
2021/11/28 10:39:17;;;;;;;7.97;2.75;;;;;;;2.65;100.00;99008.22;6205116;23;20027;-50
2021/11/28 10:42:23;;;;;;;1.92;1.83;;;;;;;2.63;100.00;99007.91;6205319;23;20078;-50
2021/11/28 10:45:26;;;;;;;2.15;2.00;;;;;;;2.76;100.00;99011.38;6206056;23;20081;-50
2021/11/28 10:48:29;;;;;;;2.25;1.70;;;;;;;2.89;100.00;99011.34;6206528;23;20035;-50
2021/11/28 10:51:33;;;;;;;2.22;1.15;;;;;;;3.10;100.00;99015.38;6206641;23;20012;-55
2021/11/28 10:54:44;;;;;;;17.65;1.02;;;;;;;3.18;100.00;99000.16;6206071;23;20035;-51
2021/11/28 10:58:05;;;;;;;2.17;0.93;;;;;;;3.24;100.00;98984.59;6206379;23;20035;-51
2021/11/28 11:01:09;;;;;;;1.30;1.20;;;;;;;3.40;100.00;98984.44;6206271;23;20046;-51
2021/11/28 11:04:20;;;;;;;1.13;0.80;;;;;;;3.59;100.00;98984.09;6205913;23;20035;-50
2021/11/28 11:07:25;;;;;;;0.60;0.60;;;;;;;3.71;100.00;98977.75;6206714;23;20011;-51
2021/11/28 11:10:30;;;;;;;0.40;0.40;;;;;;;3.86;100.00;98980.72;6205953;23;20073;-51
2021/11/28 11:13:50;;;;;;;1.38;0.82;;;;;;;4.01;100.00;98984.47;6205880;23;20069;-51
2021/11/28 11:17:02;;;;;;;2.17;0.95;;;;;;;4.09;100.00;98982.97;6206058;23;20035;-54
2021/11/28 11:20:05;;;;;;;;;;;;;;;4.20;100.00;98980.56;6206489;23;20170;-52
2021/11/28 11:23:31;;;;;;;0.63;0.63;;;;;;;4.37;100.00;98984.63;6206018;23;19970;-54
2021/11/28 11:26:35;;;;;;;2.33;1.13;;;;;;;4.40;100.00;98975.44;6206179;23;20011;-53
2021/11/28 11:29:41;;;;;;;0.60;0.60;;;;;;;4.41;100.00;98978.97;6206201;23;20041;-53
2021/11/28 11:32:46;;;;;;;0.82;0.77;;;;;;;4.40;100.00;98977.41;6205871;23;20015;-53
2021/11/28 11:35:51;;;;;;;0.90;0.68;;;;;;;4.44;100.00;98978.81;6206590;23;20388;-55
2021/11/28 11:38:55;;;;;;;0.38;0.38;;;;;;;4.47;100.00;98972.38;6206410;23;20592;-54
2021/11/28 11:42:00;;;;;;;0.32;0.32;;;;;;;4.50;100.00;98973.47;6187545;23;20050;-55
2021/11/28 11:45:04;;;;;;;0.68;0.68;;;;;;;4.58;100.00;98980.22;6206332;23;20158;-55
2021/11/28 11:48:08;;;;;;;2.65;1.52;;;;;;;4.66;100.00;98975.19;6206529;23;20066;-56
2021/11/28 11:51:12;;;;;;;2.85;0.60;;;;;;;4.72;100.00;98973.38;6205722;23;20229;-56
2021/11/28 11:54:22;;;;;;;0.50;0.50;;;;;;;4.82;100.00;98980.41;6205863;23;20248;-56
2021/11/28 11:57:34;;;;;;;13.38;2.38;;;;;;;4.76;100.00;98971.22;6206368;23;20019;-56
2021/11/28 12:00:45;;;;;;;;;;;;;;;4.74;100.00;98985.47;6206266;23;20359;-56
2021/11/28 12:03:51;;;;;;;2.08;0.68;;;;;;;4.74;100.00;98976.44;6204757;23;20286;-57
2021/11/28 12:06:55;;;;;;;1.15;0.65;;;;;;;4.74;100.00;98979.19;6205233;23;20023;-56
2021/11/28 12:10:36;;;;;;;0.40;0.40;;;;;;;4.63;100.00;98968.59;6204882;23;20431;-57
2021/11/28 12:13:49;;;;;;;0.22;0.22;;;;;;;4.65;100.00;98976.41;6204950;23;20545;-57
2021/11/28 12:16:52;;;;;;;0.60;0.60;;;;;;;4.60;100.00;98975.78;6204613;23;20058;-57
2021/11/28 12:19:55;;;;;;;2.05;0.47;;;;;;;4.60;100.00;98967.53;6204848;23;20026;-57
2021/11/28 12:22:59;;;;;;;0.55;0.55;;;;;;;4.65;100.00;98959.88;6205602;23;20403;-57
2021/11/28 12:26:03;;;;;;;3.92;0.60;;;;;;;4.77;100.00;98972.72;6205829;23;20400;-57
2021/11/28 12:29:15;;;;;;;0.20;0.20;;;;;;;4.86;100.00;98964.47;6206518;23;20007;-57
2021/11/28 12:32:22;;;;;;;;;;;;;;;4.91;100.00;98955.59;6206233;23;20225;-58
2021/11/28 12:35:38;;;;;;;2.75;1.17;;;;;;;4.99;100.00;98956.81;6244082;23;19914;-57
2021/11/28 12:38:49;;;;;;;1.65;1.35;;;;;;;5.06;100.00;98967.56;6245223;23;20082;-57
2021/11/28 12:42:00;;;;;;;0.60;0.60;;;;;;;5.13;100.00;98939.66;6245011;23;20070;-57
2021/11/28 12:45:04;;;;;;;0.85;0.85;;;;;;;5.18;100.00;98945.31;6244167;23;20471;-57
2021/11/28 12:48:16;;;;;;;0.88;0.82;;;;;;;5.18;100.00;98936.28;6244766;23;20023;-57
2021/11/28 12:51:25;;;;;;;;;;;;;;;5.03;100.00;98946.41;6215246;23;20071;-56
2021/11/28 12:54:30;;;;;;;5.20;1.42;;;;;;;4.92;100.00;98949.63;6213499;23;19914;-56
2021/11/28 12:57:36;;;;;;;0.60;0.60;;;;;;;4.90;100.00;98938.28;6214010;23;20027;-57
2021/11/28 13:00:49;;;;;;;2.83;1.10;;;;;;;4.93;100.00;98944.88;6214699;23;20023;-57
2021/11/28 13:04:03;;;;;;;0.75;0.65;;;;;;;4.84;100.00;98929.09;6214812;23;20043;-57
2021/11/28 13:07:30;;;;;;;0.30;0.30;;;;;;;4.78;100.00;98930.16;6214942;23;20106;-57
2021/11/28 13:10:33;;;;;;;0.77;0.77;;;;;;;4.81;100.00;98930.00;6214827;23;20511;-57
2021/11/28 13:13:39;;;;;;;0.32;0.32;;;;;;;4.83;100.00;98938.56;6214570;23;20393;-57
2021/11/28 13:16:42;;;;;;;0.40;0.40;;;;;;;4.94;100.00;98918.81;6214640;23;20150;-57
2021/11/28 13:19:47;;;;;;;1.75;0.70;;;;;;;5.05;100.00;98921.88;6214357;23;20421;-57
2021/11/28 13:22:50;;;;;;;0.70;0.70;;;;;;;5.00;100.00;98908.72;6214225;23;20104;-57
2021/11/28 13:25:56;;;;;;;0.47;0.45;;;;;;;4.92;100.00;98899.97;6214465;23;20027;-57
2021/11/28 13:29:05;;;;;;;0.22;0.22;;;;;;;4.85;100.00;98886.47;6214713;23;20070;-58
2021/11/28 13:32:14;;;;;;;3.17;0.88;;;;;;;4.80;100.00;98884.34;6214595;23;20350;-57
2021/11/28 13:35:17;;;;;;;0.70;0.70;;;;;;;4.82;100.00;98886.63;6214792;23;20079;-56
2021/11/28 13:38:23;;;;;;;0.28;0.28;;;;;;;4.77;100.00;98890.78;6214743;23;20067;-61
2021/11/28 13:41:28;;;;;;;0.40;0.40;;;;;;;4.71;100.00;98906.41;6214663;23;20027;-61
2021/11/28 13:44:31;;;;;;;0.50;0.47;;;;;;;4.71;100.00;98880.81;6196065;23;20024;-61
2021/11/28 13:47:34;;;;;;;0.30;0.30;;;;;;;4.61;100.00;98878.03;6214631;23;20066;-62
2021/11/28 13:50:37;;;;;;;0.70;0.70;;;;;;;4.58;100.00;98892.78;6226369;23;20388;-61
2021/11/28 13:53:55;;;;;;;0.50;0.50;;;;;;;4.46;100.00;98888.16;6240194;22;20545;-76
2021/11/28 13:57:24;;;;;;;0.95;0.95;;;;;;;4.41;100.00;98880.50;6248478;23;20073;-78
2021/11/28 14:00:28;;;;;;;0.63;0.63;;;;;;;4.41;100.00;98897.03;6254577;23;20075;-76
2021/11/28 14:03:42;;;;;;;0.98;0.98;;;;;;;4.27;100.00;98903.13;6224240;23;20469;-78
2021/11/28 14:06:45;;;;;;;22.45;2.42;;;;;;;4.29;100.00;98891.63;6242762;23;20111;-76
2021/11/28 14:09:52;;;;;;;13.95;4.10;;;;;;;4.35;100.00;98893.31;6243067;23;20358;-78
2021/11/28 14:12:57;;;;;;;0.82;0.82;;;;;;;4.42;100.00;98903.28;6242960;23;20353;-78
2021/11/28 14:16:00;;;;;;;20.67;1.65;;;;;;;4.32;100.00;98899.00;6244124;23;20023;-78
2021/11/28 14:19:03;;;;;;;0.60;0.60;;;;;;;4.31;100.00;98891.97;6245316;23;20096;-78
2021/11/28 14:22:27;;;;;;;1.10;0.82;;;;;;;4.25;100.00;98900.06;6245154;23;20067;-78
2021/11/28 14:25:35;;;;;;;3.17;1.25;;;;;;;4.21;100.00;98899.44;6245122;23;20130;-79
2021/11/28 14:28:39;;;;;;;3.13;1.90;;;;;;;4.11;100.00;98897.13;6244797;23;20027;-80
2021/11/28 14:32:00;;;;;;;0.47;0.47;;;;;;;4.00;100.00;98905.81;6244881;23;20081;-79
2021/11/28 14:35:23;;;;;;;1.25;1.25;;;;;;;4.01;100.00;98907.34;6245212;23;20058;-80
2021/11/28 14:38:38;;;;;;;1.48;1.38;;;;;;;4.05;100.00;98910.72;6245385;23;20121;-79
2021/11/28 14:41:49;;;;;;;0.95;0.73;;;;;;;3.99;100.00;98904.25;6244655;23;20031;-79